sensor_id;sensor_type;location;lat;lon;timestamp;pressure;altitude;pressure_sealevel;temperature;humidity
68137;BME280;54939;50.826;9.030;2023-04-26T00:00:27;98749.97;;;14.77;53.15
68137;BME280;54939;50.826;9.030;2023-04-26T00:01:01;98749.97;;;14.77;53.04
68137;BME280;54939;50.826;9.030;2023-04-26T00:01:33;98748.31;;;14.76;53.02
68137;BME280;54939;50.826;9.030;2023-04-26T00:02:04;98745.63;;;14.76;53.10
68137;BME280;54939;50.826;9.030;2023-04-26T00:02:34;98758.03;;;14.77;52.92
68137;BME280;54939;50.826;9.030;2023-04-26T00:03:04;98757.22;;;14.76;53.01
68137;BME280;54939;50.826;9.030;2023-04-26T00:03:36;98749.16;;;14.76;52.85
68137;BME280;54939;50.826;9.030;2023-04-26T00:04:06;98753.69;;;14.76;53.10
68137;BME280;54939;50.826;9.030;2023-04-26T00:04:38;98745.63;;;14.76;53.00
68137;BME280;54939;50.826;9.030;2023-04-26T00:05:08;98748.31;;;14.76;52.96
68137;BME280;54939;50.826;9.030;2023-04-26T00:05:38;98748.31;;;14.76;53.06
68137;BME280;54939;50.826;9.030;2023-04-26T00:06:09;98754.53;;;14.76;53.18
68137;BME280;54939;50.826;9.030;2023-04-26T00:06:39;98745.63;;;14.76;53.07
68137;BME280;54939;50.826;9.030;2023-04-26T00:07:09;98751.00;;;14.76;53.05
68137;BME280;54939;50.826;9.030;2023-04-26T00:07:42;98745.78;;;14.74;53.00
68137;BME280;54939;50.826;9.030;2023-04-26T00:08:12;98746.63;;;14.75;53.06
68137;BME280;54939;50.826;9.030;2023-04-26T00:08:42;98753.69;;;14.76;53.04
68137;BME280;54939;50.826;9.030;2023-04-26T00:09:13;98745.78;;;14.74;53.04
68137;BME280;54939;50.826;9.030;2023-04-26T00:09:43;98752.00;;;14.75;53.13
68137;BME280;54939;50.826;9.030;2023-04-26T00:10:13;98752.00;;;14.75;53.00
68137;BME280;54939;50.826;9.030;2023-04-26T00:10:43;98750.31;;;14.74;53.11
68137;BME280;54939;50.826;9.030;2023-04-26T00:11:14;98753.00;;;14.74;53.09
68137;BME280;54939;50.826;9.030;2023-04-26T00:11:44;98745.78;;;14.74;53.09
68137;BME280;54939;50.826;9.030;2023-04-26T00:12:14;98750.16;;;14.75;53.08
68137;BME280;54939;50.826;9.030;2023-04-26T00:12:44;98751.16;;;14.74;53.07
68137;BME280;54939;50.826;9.030;2023-04-26T00:13:14;98751.16;;;14.74;53.20
68137;BME280;54939;50.826;9.030;2023-04-26T00:13:45;98751.16;;;14.74;53.10
68137;BME280;54939;50.826;9.030;2023-04-26T00:14:15;98753.00;;;14.74;53.04
68137;BME280;54939;50.826;9.030;2023-04-26T00:14:45;98747.63;;;14.74;52.99
68137;BME280;54939;50.826;9.030;2023-04-26T00:15:15;98752.84;;;14.75;53.09
68137;BME280;54939;50.826;9.030;2023-04-26T00:15:45;98748.47;;;14.74;53.19
68137;BME280;54939;50.826;9.030;2023-04-26T00:16:16;98756.53;;;14.74;53.24
68137;BME280;54939;50.826;9.030;2023-04-26T00:16:47;98747.63;;;14.74;53.09
68137;BME280;54939;50.826;9.030;2023-04-26T00:17:18;98752.84;;;14.75;52.97
68137;BME280;54939;50.826;9.030;2023-04-26T00:17:48;98750.16;;;14.75;53.11
68137;BME280;54939;50.826;9.030;2023-04-26T00:18:19;98751.16;;;14.74;52.92
68137;BME280;54939;50.826;9.030;2023-04-26T00:18:49;98746.63;;;14.75;53.06
68137;BME280;54939;50.826;9.030;2023-04-26T00:19:20;98750.16;;;14.75;53.14
68137;BME280;54939;50.826;9.030;2023-04-26T00:19:50;98748.47;;;14.74;53.16
68137;BME280;54939;50.826;9.030;2023-04-26T00:20:20;98747.63;;;14.74;53.05
68137;BME280;54939;50.826;9.030;2023-04-26T00:20:51;98744.13;;;14.73;52.99
68137;BME280;54939;50.826;9.030;2023-04-26T00:21:21;98741.44;;;14.73;53.13
68137;BME280;54939;50.826;9.030;2023-04-26T00:21:51;98750.31;;;14.74;52.92
68137;BME280;54939;50.826;9.030;2023-04-26T00:22:21;98744.94;;;14.74;52.96
68137;BME280;54939;50.826;9.030;2023-04-26T00:22:52;98746.00;;;14.73;53.08
68137;BME280;54939;50.826;9.030;2023-04-26T00:23:22;98744.94;;;14.74;53.23
68137;BME280;54939;50.826;9.030;2023-04-26T00:23:52;98743.31;;;14.73;53.12
68137;BME280;54939;50.826;9.030;2023-04-26T00:24:22;98752.19;;;14.73;53.01
68137;BME280;54939;50.826;9.030;2023-04-26T00:24:53;98740.63;;;14.73;52.98
68137;BME280;54939;50.826;9.030;2023-04-26T00:25:23;98749.50;;;14.73;53.10
68137;BME280;54939;50.826;9.030;2023-04-26T00:25:53;98747.84;;;14.72;52.92
68137;BME280;54939;50.826;9.030;2023-04-26T00:26:23;98747.84;;;14.72;53.22
68137;BME280;54939;50.826;9.030;2023-04-26T00:26:54;98748.69;;;14.73;53.26
68137;BME280;54939;50.826;9.030;2023-04-26T00:27:24;98748.69;;;14.73;53.11
68137;BME280;54939;50.826;9.030;2023-04-26T00:27:54;98746.81;;;14.73;53.08
68137;BME280;54939;50.826;9.030;2023-04-26T00:28:24;98749.50;;;14.73;53.09
68137;BME280;54939;50.826;9.030;2023-04-26T00:28:55;98746.00;;;14.73;53.01
68137;BME280;54939;50.826;9.030;2023-04-26T00:29:25;98746.00;;;14.73;53.04
68137;BME280;54939;50.826;9.030;2023-04-26T00:29:55;98747.63;;;14.74;53.03
68137;BME280;54939;50.826;9.030;2023-04-26T00:30:25;98749.50;;;14.73;53.04
68137;BME280;54939;50.826;9.030;2023-04-26T00:30:56;98743.31;;;14.73;52.95
68137;BME280;54939;50.826;9.030;2023-04-26T00:31:26;98746.00;;;14.73;52.97
68137;BME280;54939;50.826;9.030;2023-04-26T00:31:57;98752.19;;;14.73;52.92
68137;BME280;54939;50.826;9.030;2023-04-26T00:32:27;98751.38;;;14.73;53.05
68137;BME280;54939;50.826;9.030;2023-04-26T00:32:57;98750.53;;;14.72;52.94
68137;BME280;54939;50.826;9.030;2023-04-26T00:33:27;98747.84;;;14.72;53.04
68137;BME280;54939;50.826;9.030;2023-04-26T00:33:57;98748.00;;;14.71;53.14
68137;BME280;54939;50.826;9.030;2023-04-26T00:34:31;98747.00;;;14.72;52.82
68137;BME280;54939;50.826;9.030;2023-04-26T00:35:02;98751.53;;;14.71;53.02
68137;BME280;54939;50.826;9.030;2023-04-26T00:35:33;98745.16;;;14.72;53.04
68137;BME280;54939;50.826;9.030;2023-04-26T00:36:03;98739.78;;;14.72;53.02
68137;BME280;54939;50.826;9.030;2023-04-26T00:36:33;98741.63;;;14.72;53.08
68137;BME280;54939;50.826;9.030;2023-04-26T00:37:04;98747.00;;;14.72;53.12
68137;BME280;54939;50.826;9.030;2023-04-26T00:37:34;98747.84;;;14.72;53.01
68137;BME280;54939;50.826;9.030;2023-04-26T00:38:05;98744.31;;;14.72;52.88
68137;BME280;54939;50.826;9.030;2023-04-26T00:38:35;98748.84;;;14.71;53.15
68137;BME280;54939;50.826;9.030;2023-04-26T00:39:05;98749.69;;;14.72;53.08
68137;BME280;54939;50.826;9.030;2023-04-26T00:39:35;98749.88;;;14.70;53.17
68137;BME280;54939;50.826;9.030;2023-04-26T00:40:06;98752.38;;;14.72;52.92
68137;BME280;54939;50.826;9.030;2023-04-26T00:40:36;98745.31;;;14.71;52.92
68137;BME280;54939;50.826;9.030;2023-04-26T00:41:06;98749.03;;;14.70;53.02
68137;BME280;54939;50.826;9.030;2023-04-26T00:41:37;98748.00;;;14.71;53.04
68137;BME280;54939;50.826;9.030;2023-04-26T00:42:07;98751.72;;;14.70;53.00
68137;BME280;54939;50.826;9.030;2023-04-26T00:42:38;98747.19;;;14.70;53.20
68137;BME280;54939;50.826;9.030;2023-04-26T00:43:09;98750.88;;;14.69;53.04
68137;BME280;54939;50.826;9.030;2023-04-26T00:43:39;98754.41;;;14.70;53.16
68137;BME280;54939;50.826;9.030;2023-04-26T00:44:10;98750.03;;;14.69;52.89
68137;BME280;54939;50.826;9.030;2023-04-26T00:44:40;98750.88;;;14.69;53.09
68137;BME280;54939;50.826;9.030;2023-04-26T00:45:10;98751.72;;;14.70;53.03
68137;BME280;54939;50.826;9.030;2023-04-26T00:45:40;98754.56;;;14.68;53.13
68137;BME280;54939;50.826;9.030;2023-04-26T00:46:10;98749.88;;;14.70;53.17
68137;BME280;54939;50.826;9.030;2023-04-26T00:46:41;98749.88;;;14.70;53.00
68137;BME280;54939;50.826;9.030;2023-04-26T00:47:11;98748.19;;;14.69;52.94
68137;BME280;54939;50.826;9.030;2023-04-26T00:47:42;98756.25;;;14.69;53.17
68137;BME280;54939;50.826;9.030;2023-04-26T00:48:12;98753.56;;;14.69;52.63
68137;BME280;54939;50.826;9.030;2023-04-26T00:48:43;98756.25;;;14.69;53.04
68137;BME280;54939;50.826;9.030;2023-04-26T00:49:14;98750.03;;;14.69;53.01
68137;BME280;54939;50.826;9.030;2023-04-26T00:49:45;98752.72;;;14.69;53.11
68137;BME280;54939;50.826;9.030;2023-04-26T00:50:15;98749.56;;;14.65;53.14
68137;BME280;54939;50.826;9.030;2023-04-26T00:50:45;98755.41;;;14.69;53.13
68137;BME280;54939;50.826;9.030;2023-04-26T00:51:16;98753.72;;;14.68;53.06
68137;BME280;54939;50.826;9.030;2023-04-26T00:51:47;98757.25;;;14.68;53.03
68137;BME280;54939;50.826;9.030;2023-04-26T00:52:17;98751.88;;;14.68;53.04
68137;BME280;54939;50.826;9.030;2023-04-26T00:52:47;98760.78;;;14.69;53.15
68137;BME280;54939;50.826;9.030;2023-04-26T00:53:18;98754.56;;;14.68;53.05
68137;BME280;54939;50.826;9.030;2023-04-26T00:53:49;98763.47;;;14.69;53.17
68137;BME280;54939;50.826;9.030;2023-04-26T00:54:20;98758.28;;;14.67;53.08
68137;BME280;54939;50.826;9.030;2023-04-26T00:54:50;98757.25;;;14.68;53.01
68137;BME280;54939;50.826;9.030;2023-04-26T00:55:21;98754.56;;;14.68;53.09
68137;BME280;54939;50.826;9.030;2023-04-26T00:55:52;98758.28;;;14.67;53.01
68137;BME280;54939;50.826;9.030;2023-04-26T00:56:23;98759.28;;;14.66;53.08
68137;BME280;54939;50.826;9.030;2023-04-26T00:56:53;98753.09;;;14.66;53.04
68137;BME280;54939;50.826;9.030;2023-04-26T00:57:24;98764.66;;;14.66;52.96
68137;BME280;54939;50.826;9.030;2023-04-26T00:57:54;98753.72;;;14.68;53.07
68137;BME280;54939;50.826;9.030;2023-04-26T00:58:25;98759.94;;;14.68;52.88
68137;BME280;54939;50.826;9.030;2023-04-26T00:58:55;98755.78;;;14.66;52.94
68137;BME280;54939;50.826;9.030;2023-04-26T00:59:25;98756.41;;;14.68;52.92
68137;BME280;54939;50.826;9.030;2023-04-26T00:59:56;98760.13;;;14.67;52.90
68137;BME280;54939;50.826;9.030;2023-04-26T01:00:26;98759.28;;;14.66;52.97
68137;BME280;54939;50.826;9.030;2023-04-26T01:00:56;98760.13;;;14.67;52.98
68137;BME280;54939;50.826;9.030;2023-04-26T01:01:27;98757.44;;;14.67;52.84
68137;BME280;54939;50.826;9.030;2023-04-26T01:01:57;98761.97;;;14.66;53.04
68137;BME280;54939;50.826;9.030;2023-04-26T01:02:27;98756.59;;;14.66;52.99
68137;BME280;54939;50.826;9.030;2023-04-26T01:02:57;98758.47;;;14.66;53.00
68137;BME280;54939;50.826;9.030;2023-04-26T01:03:28;98763.84;;;14.66;52.99
68137;BME280;54939;50.826;9.030;2023-04-26T01:03:59;98759.28;;;14.66;52.83
68137;BME280;54939;50.826;9.030;2023-04-26T01:04:29;98754.75;;;14.67;52.97
68137;BME280;54939;50.826;9.030;2023-04-26T01:04:59;98762.81;;;14.67;53.08
68137;BME280;54939;50.826;9.030;2023-04-26T01:05:30;98751.41;;;14.65;52.97
68137;BME280;54939;50.826;9.030;2023-04-26T01:06:00;98761.16;;;14.66;53.10
68137;BME280;54939;50.826;9.030;2023-04-26T01:06:32;98755.78;;;14.66;52.95
68137;BME280;54939;50.826;9.030;2023-04-26T01:07:02;98761.97;;;14.66;52.95
68137;BME280;54939;50.826;9.030;2023-04-26T01:07:32;98756.78;;;14.65;52.95
68137;BME280;54939;50.826;9.030;2023-04-26T01:08:03;98761.34;;;14.64;53.05
68137;BME280;54939;50.826;9.030;2023-04-26T01:08:33;98762.16;;;14.65;53.04
68137;BME280;54939;50.826;9.030;2023-04-26T01:09:04;98758.66;;;14.64;53.08
68137;BME280;54939;50.826;9.030;2023-04-26T01:09:37;98765.69;;;14.65;52.95
68137;BME280;54939;50.826;9.030;2023-04-26T01:10:08;98761.34;;;14.64;52.96
68137;BME280;54939;50.826;9.030;2023-04-26T01:10:38;98764.00;;;14.64;53.23
68137;BME280;54939;50.826;9.030;2023-04-26T01:11:09;98764.00;;;14.64;53.14
68137;BME280;54939;50.826;9.030;2023-04-26T01:11:39;98763.19;;;14.64;53.00
68137;BME280;54939;50.826;9.030;2023-04-26T01:12:11;98756.78;;;14.65;53.10
68137;BME280;54939;50.826;9.030;2023-04-26T01:12:42;98759.47;;;14.65;52.78
68137;BME280;54939;50.826;9.030;2023-04-26T01:13:12;98759.47;;;14.65;53.12
68137;BME280;54939;50.826;9.030;2023-04-26T01:13:43;98757.81;;;14.64;53.10
68137;BME280;54939;50.826;9.030;2023-04-26T01:14:13;98760.66;;;14.62;52.84
68137;BME280;54939;50.826;9.030;2023-04-26T01:14:43;98760.50;;;14.64;53.00
68137;BME280;54939;50.826;9.030;2023-04-26T01:15:14;98762.34;;;14.63;52.93
68137;BME280;54939;50.826;9.030;2023-04-26T01:15:45;98757.81;;;14.64;53.14
68137;BME280;54939;50.826;9.030;2023-04-26T01:16:16;98764.84;;;14.65;53.05
68137;BME280;54939;50.826;9.030;2023-04-26T01:16:48;98763.19;;;14.64;53.00
68137;BME280;54939;50.826;9.030;2023-04-26T01:17:18;98760.50;;;14.64;53.12
68137;BME280;54939;50.826;9.030;2023-04-26T01:17:49;98754.44;;;14.62;53.01
68137;BME280;54939;50.826;9.030;2023-04-26T01:18:19;98757.97;;;14.62;53.01
68137;BME280;54939;50.826;9.030;2023-04-26T01:18:50;98758.81;;;14.63;52.86
68137;BME280;54939;50.826;9.030;2023-04-26T01:19:21;98758.81;;;14.63;52.91
68137;BME280;54939;50.826;9.030;2023-04-26T01:19:52;98763.19;;;14.64;52.95
68137;BME280;54939;50.826;9.030;2023-04-26T01:20:22;98770.41;;;14.63;52.98
68137;BME280;54939;50.826;9.030;2023-04-26T01:20:53;98766.88;;;14.63;52.93
68137;BME280;54939;50.826;9.030;2023-04-26T01:21:25;98766.03;;;14.62;52.95
68137;BME280;54939;50.826;9.030;2023-04-26T01:21:55;98762.50;;;14.62;53.03
68137;BME280;54939;50.826;9.030;2023-04-26T01:22:26;98763.34;;;14.62;52.96
68137;BME280;54939;50.826;9.030;2023-04-26T01:22:57;98761.66;;;14.61;52.81
68137;BME280;54939;50.826;9.030;2023-04-26T01:23:27;98768.72;;;14.62;52.91
68137;BME280;54939;50.826;9.030;2023-04-26T01:23:57;98766.03;;;14.62;53.07
68137;BME280;54939;50.826;9.030;2023-04-26T01:24:27;98766.03;;;14.62;52.95
68137;BME280;54939;50.826;9.030;2023-04-26T01:24:58;98757.13;;;14.62;53.11
68137;BME280;54939;50.826;9.030;2023-04-26T01:25:28;98768.72;;;14.62;52.97
68137;BME280;54939;50.826;9.030;2023-04-26T01:25:58;98761.50;;;14.63;52.88
68137;BME280;54939;50.826;9.030;2023-04-26T01:26:29;98759.81;;;14.62;52.95
68137;BME280;54939;50.826;9.030;2023-04-26T01:27:00;98759.81;;;14.62;52.92
68137;BME280;54939;50.826;9.030;2023-04-26T01:27:30;98758.81;;;14.63;52.96
68137;BME280;54939;50.826;9.030;2023-04-26T01:28:00;98767.88;;;14.62;52.90
68137;BME280;54939;50.826;9.030;2023-04-26T01:28:32;98763.34;;;14.62;53.02
68137;BME280;54939;50.826;9.030;2023-04-26T01:29:11;98762.50;;;14.62;52.87
68137;BME280;54939;50.826;9.030;2023-04-26T01:29:41;98763.53;;;14.61;52.88
68137;BME280;54939;50.826;9.030;2023-04-26T01:30:12;98772.41;;;14.61;53.13
68137;BME280;54939;50.826;9.030;2023-04-26T01:30:42;98767.88;;;14.62;52.96
68137;BME280;54939;50.826;9.030;2023-04-26T01:31:13;98764.34;;;14.61;53.01
68137;BME280;54939;50.826;9.030;2023-04-26T01:31:43;98765.19;;;14.62;52.84
68137;BME280;54939;50.826;9.030;2023-04-26T01:32:13;98768.91;;;14.61;52.93
68137;BME280;54939;50.826;9.030;2023-04-26T01:32:44;98762.69;;;14.60;53.01
68137;BME280;54939;50.826;9.030;2023-04-26T01:33:14;98761.84;;;14.59;53.00
68137;BME280;54939;50.826;9.030;2023-04-26T01:33:44;98763.53;;;14.61;52.96
68137;BME280;54939;50.826;9.030;2023-04-26T01:34:15;98763.53;;;14.61;52.83
68137;BME280;54939;50.826;9.030;2023-04-26T01:34:45;98775.09;;;14.61;53.08
68137;BME280;54939;50.826;9.030;2023-04-26T01:35:15;98763.53;;;14.61;52.98
68137;BME280;54939;50.826;9.030;2023-04-26T01:35:46;98765.38;;;14.60;53.15
68137;BME280;54939;50.826;9.030;2023-04-26T01:36:16;98770.75;;;14.60;53.07
68137;BME280;54939;50.826;9.030;2023-04-26T01:36:46;98762.69;;;14.60;52.96
68137;BME280;54939;50.826;9.030;2023-04-26T01:37:17;98769.91;;;14.59;53.06
68137;BME280;54939;50.826;9.030;2023-04-26T01:37:47;98768.91;;;14.61;53.13
68137;BME280;54939;50.826;9.030;2023-04-26T01:38:18;98766.38;;;14.59;52.86
68137;BME280;54939;50.826;9.030;2023-04-26T01:38:49;98764.53;;;14.59;52.89
68137;BME280;54939;50.826;9.030;2023-04-26T01:39:19;98764.53;;;14.59;52.93
68137;BME280;54939;50.826;9.030;2023-04-26T01:39:49;98762.88;;;14.58;53.02
68137;BME280;54939;50.826;9.030;2023-04-26T01:40:20;98769.91;;;14.59;52.88
68137;BME280;54939;50.826;9.030;2023-04-26T01:40:50;98760.19;;;14.58;53.19
68137;BME280;54939;50.826;9.030;2023-04-26T01:41:21;98758.31;;;14.59;53.05
68137;BME280;54939;50.826;9.030;2023-04-26T01:41:51;98758.16;;;14.61;52.93
68137;BME280;54939;50.826;9.030;2023-04-26T01:42:21;98764.53;;;14.59;52.97
68137;BME280;54939;50.826;9.030;2023-04-26T01:42:52;98755.84;;;14.57;53.13
68137;BME280;54939;50.826;9.030;2023-04-26T01:43:22;98761.84;;;14.59;52.96
68137;BME280;54939;50.826;9.030;2023-04-26T01:43:52;98761.22;;;14.57;52.97
68137;BME280;54939;50.826;9.030;2023-04-26T01:44:22;98758.31;;;14.59;52.99
68137;BME280;54939;50.826;9.030;2023-04-26T01:44:52;98755.63;;;14.59;52.79
68137;BME280;54939;50.826;9.030;2023-04-26T01:45:22;98764.53;;;14.59;52.85
68137;BME280;54939;50.826;9.030;2023-04-26T01:45:53;98758.31;;;14.59;52.97
68137;BME280;54939;50.826;9.030;2023-04-26T01:46:23;98762.88;;;14.58;52.90
68137;BME280;54939;50.826;9.030;2023-04-26T01:46:53;98755.84;;;14.57;52.98
68137;BME280;54939;50.826;9.030;2023-04-26T01:47:23;98753.97;;;14.58;52.94
68137;BME280;54939;50.826;9.030;2023-04-26T01:47:55;98757.50;;;14.58;52.93
68137;BME280;54939;50.826;9.030;2023-04-26T01:48:25;98751.31;;;14.58;53.04
68137;BME280;54939;50.826;9.030;2023-04-26T01:48:55;98757.50;;;14.58;53.08
68137;BME280;54939;50.826;9.030;2023-04-26T01:49:26;98763.91;;;14.57;52.95
68137;BME280;54939;50.826;9.030;2023-04-26T01:49:56;98764.72;;;14.58;53.15
68137;BME280;54939;50.826;9.030;2023-04-26T01:50:26;98761.22;;;14.57;53.01
68137;BME280;54939;50.826;9.030;2023-04-26T01:50:56;98761.22;;;14.57;52.87
68137;BME280;54939;50.826;9.030;2023-04-26T01:51:27;98758.69;;;14.56;53.00
68137;BME280;54939;50.826;9.030;2023-04-26T01:51:57;98758.53;;;14.57;53.04
68137;BME280;54939;50.826;9.030;2023-04-26T01:52:27;98759.34;;;14.58;52.86
68137;BME280;54939;50.826;9.030;2023-04-26T01:52:58;98755.00;;;14.57;52.89
68137;BME280;54939;50.826;9.030;2023-04-26T01:53:28;98759.53;;;14.56;52.93
68137;BME280;54939;50.826;9.030;2023-04-26T01:53:58;98763.06;;;14.57;52.91
68137;BME280;54939;50.826;9.030;2023-04-26T01:54:28;98752.31;;;14.57;52.83
68137;BME280;54939;50.826;9.030;2023-04-26T01:54:58;98755.84;;;14.57;53.01
68137;BME280;54939;50.826;9.030;2023-04-26T01:55:29;98759.53;;;14.56;52.88
68137;BME280;54939;50.826;9.030;2023-04-26T01:56:00;98753.31;;;14.56;52.89
68137;BME280;54939;50.826;9.030;2023-04-26T01:56:31;98753.31;;;14.56;53.11
68137;BME280;54939;50.826;9.030;2023-04-26T01:57:01;98755.16;;;14.55;53.06
68137;BME280;54939;50.826;9.030;2023-04-26T01:57:31;98757.84;;;14.55;52.91
68137;BME280;54939;50.826;9.030;2023-04-26T01:58:02;98757.84;;;14.55;53.04
68137;BME280;54939;50.826;9.030;2023-04-26T01:58:32;98755.16;;;14.55;53.11
68137;BME280;54939;50.826;9.030;2023-04-26T01:59:02;98754.31;;;14.55;53.13
68137;BME280;54939;50.826;9.030;2023-04-26T01:59:32;98750.81;;;14.54;52.99
68137;BME280;54939;50.826;9.030;2023-04-26T02:00:03;98751.81;;;14.53;52.99
68137;BME280;54939;50.826;9.030;2023-04-26T02:00:33;98749.13;;;14.53;53.07
68137;BME280;54939;50.826;9.030;2023-04-26T02:01:04;98750.81;;;14.54;53.02
68137;BME280;54939;50.826;9.030;2023-04-26T02:01:35;98755.34;;;14.54;52.89
68137;BME280;54939;50.826;9.030;2023-04-26T02:02:05;98756.19;;;14.54;52.94
68137;BME280;54939;50.826;9.030;2023-04-26T02:02:35;98753.50;;;14.54;53.03
68137;BME280;54939;50.826;9.030;2023-04-26T02:03:05;98751.66;;;14.55;52.80
68137;BME280;54939;50.826;9.030;2023-04-26T02:03:36;98756.34;;;14.53;53.06
68137;BME280;54939;50.826;9.030;2023-04-26T02:04:06;98746.44;;;14.53;52.92
68137;BME280;54939;50.826;9.030;2023-04-26T02:04:36;98757.19;;;14.53;52.96
68137;BME280;54939;50.826;9.030;2023-04-26T02:05:09;98752.66;;;14.54;52.80
68137;BME280;54939;50.826;9.030;2023-04-26T02:05:39;98748.28;;;14.53;52.89
68137;BME280;54939;50.826;9.030;2023-04-26T02:06:10;98754.50;;;14.53;52.80
68137;BME280;54939;50.826;9.030;2023-04-26T02:06:40;98753.66;;;14.53;52.95
68137;BME280;54939;50.826;9.030;2023-04-26T02:07:11;98754.50;;;14.53;52.92
68137;BME280;54939;50.826;9.030;2023-04-26T02:07:41;98753.66;;;14.53;53.09
68137;BME280;54939;50.826;9.030;2023-04-26T02:08:11;98753.66;;;14.53;52.88
68137;BME280;54939;50.826;9.030;2023-04-26T02:08:41;98752.81;;;14.52;52.71
68137;BME280;54939;50.826;9.030;2023-04-26T02:09:11;98763.56;;;14.52;52.98
68137;BME280;54939;50.826;9.030;2023-04-26T02:09:42;98758.19;;;14.52;52.99
68137;BME280;54939;50.826;9.030;2023-04-26T02:10:12;98760.88;;;14.52;53.06
68137;BME280;54939;50.826;9.030;2023-04-26T02:10:42;98753.66;;;14.53;52.98
68137;BME280;54939;50.826;9.030;2023-04-26T02:11:12;98752.81;;;14.52;53.00
68137;BME280;54939;50.826;9.030;2023-04-26T02:11:43;98756.56;;;14.51;52.88
68137;BME280;54939;50.826;9.030;2023-04-26T02:12:13;98752.00;;;14.52;52.83
68137;BME280;54939;50.826;9.030;2023-04-26T02:12:43;98758.19;;;14.52;53.01
68137;BME280;54939;50.826;9.030;2023-04-26T02:13:13;98758.19;;;14.52;53.01
68137;BME280;54939;50.826;9.030;2023-04-26T02:13:44;98753.88;;;14.51;52.79
68137;BME280;54939;50.826;9.030;2023-04-26T02:14:14;98750.97;;;14.53;52.93
68137;BME280;54939;50.826;9.030;2023-04-26T02:14:44;98751.19;;;14.51;53.10
68137;BME280;54939;50.826;9.030;2023-04-26T02:15:15;98757.38;;;14.52;52.96
68137;BME280;54939;50.826;9.030;2023-04-26T02:15:45;98752.00;;;14.52;53.11
68137;BME280;54939;50.826;9.030;2023-04-26T02:16:15;98751.19;;;14.51;53.11
68137;BME280;54939;50.826;9.030;2023-04-26T02:16:46;98752.81;;;14.52;52.91
68137;BME280;54939;50.826;9.030;2023-04-26T02:17:16;98750.34;;;14.51;53.11
68137;BME280;54939;50.826;9.030;2023-04-26T02:17:46;98750.34;;;14.51;53.11
68137;BME280;54939;50.826;9.030;2023-04-26T02:18:18;98748.50;;;14.51;53.10
68137;BME280;54939;50.826;9.030;2023-04-26T02:18:50;98749.66;;;14.49;53.09
68137;BME280;54939;50.826;9.030;2023-04-26T02:19:22;98750.34;;;14.51;52.94
68137;BME280;54939;50.826;9.030;2023-04-26T02:19:52;98750.34;;;14.51;52.85
68137;BME280;54939;50.826;9.030;2023-04-26T02:20:22;98752.19;;;14.50;53.23
68137;BME280;54939;50.826;9.030;2023-04-26T02:20:52;98756.72;;;14.50;52.92
68137;BME280;54939;50.826;9.030;2023-04-26T02:21:22;98749.50;;;14.50;52.87
68137;BME280;54939;50.826;9.030;2023-04-26T02:21:54;98747.66;;;14.51;52.96
68137;BME280;54939;50.826;9.030;2023-04-26T02:22:25;98747.81;;;14.49;53.00
68137;BME280;54939;50.826;9.030;2023-04-26T02:22:55;98754.03;;;14.50;52.86
68137;BME280;54939;50.826;9.030;2023-04-26T02:23:25;98754.88;;;14.50;53.08
68137;BME280;54939;50.826;9.030;2023-04-26T02:23:55;98752.19;;;14.50;52.94
68137;BME280;54939;50.826;9.030;2023-04-26T02:24:26;98759.41;;;14.50;53.03
68137;BME280;54939;50.826;9.030;2023-04-26T02:24:56;98754.88;;;14.50;53.07
68137;BME280;54939;50.826;9.030;2023-04-26T02:25:27;98762.94;;;14.50;53.10
68137;BME280;54939;50.826;9.030;2023-04-26T02:25:57;98759.41;;;14.50;52.93
68137;BME280;54939;50.826;9.030;2023-04-26T02:26:27;98757.72;;;14.49;53.02
68137;BME280;54939;50.826;9.030;2023-04-26T02:26:57;98762.25;;;14.48;52.97
68137;BME280;54939;50.826;9.030;2023-04-26T02:27:32;98762.25;;;14.48;52.99
68137;BME280;54939;50.826;9.030;2023-04-26T02:28:03;98764.94;;;14.48;52.82
68137;BME280;54939;50.826;9.030;2023-04-26T02:28:33;98759.56;;;14.48;52.84
68137;BME280;54939;50.826;9.030;2023-04-26T02:29:03;98763.09;;;14.49;52.91
68137;BME280;54939;50.826;9.030;2023-04-26T02:29:33;98768.47;;;14.49;52.87
68137;BME280;54939;50.826;9.030;2023-04-26T02:30:06;98762.25;;;14.48;52.99
68137;BME280;54939;50.826;9.030;2023-04-26T02:30:36;98769.31;;;14.49;52.98
68137;BME280;54939;50.826;9.030;2023-04-26T02:31:06;98764.94;;;14.48;53.06
68137;BME280;54939;50.826;9.030;2023-04-26T02:31:36;98772.16;;;14.48;52.99
68137;BME280;54939;50.826;9.030;2023-04-26T02:32:07;98759.56;;;14.48;53.10
68137;BME280;54939;50.826;9.030;2023-04-26T02:32:37;98761.41;;;14.48;52.89
68137;BME280;54939;50.826;9.030;2023-04-26T02:33:07;98760.59;;;14.47;52.91
68137;BME280;54939;50.826;9.030;2023-04-26T02:33:37;98760.59;;;14.47;52.98
68137;BME280;54939;50.826;9.030;2023-04-26T02:34:08;98764.94;;;14.48;53.04
68137;BME280;54939;50.826;9.030;2023-04-26T02:34:38;98761.41;;;14.48;52.87
68137;BME280;54939;50.826;9.030;2023-04-26T02:35:08;98759.75;;;14.47;53.00
68137;BME280;54939;50.826;9.030;2023-04-26T02:35:39;98757.91;;;14.47;52.96
68137;BME280;54939;50.826;9.030;2023-04-26T02:36:09;98760.59;;;14.47;52.87
68137;BME280;54939;50.826;9.030;2023-04-26T02:36:39;98757.91;;;14.47;52.80
68137;BME280;54939;50.826;9.030;2023-04-26T02:37:10;98770.50;;;14.47;52.96
68137;BME280;54939;50.826;9.030;2023-04-26T02:37:40;98764.28;;;14.46;53.10
68137;BME280;54939;50.826;9.030;2023-04-26T02:38:10;98759.75;;;14.47;53.03
68137;BME280;54939;50.826;9.030;2023-04-26T02:38:40;98760.59;;;14.47;53.05
68137;BME280;54939;50.826;9.030;2023-04-26T02:39:10;98763.28;;;14.47;52.90
68137;BME280;54939;50.826;9.030;2023-04-26T02:39:41;98760.75;;;14.46;52.79
68137;BME280;54939;50.826;9.030;2023-04-26T02:40:11;98762.59;;;14.45;53.02
68137;BME280;54939;50.826;9.030;2023-04-26T02:40:42;98757.22;;;14.45;52.65
68137;BME280;54939;50.826;9.030;2023-04-26T02:41:12;98758.28;;;14.44;52.70
68137;BME280;54939;50.826;9.030;2023-04-26T02:41:42;98758.28;;;14.44;52.75